CYYD

Smithers Airport

Smithers, , Canada
METAR CYYD 140000Z 17008KT 130V210 25SM BKN055 OVC090 00/M03 A2965 RMK SC6AC2 SLP059
Observed Flight Rules
Dec-14 @ 00:00 UTC (44 minutes ago) Visual Flight Rules
Wind Visibility Clouds
170° at 8 knots 25 miles
  • Broken at 5,500' AGL
  • Overcast at 9,000' AGL
Temperatures Readings
Current 0°C / 32°F
Dewpoint -3°C / 27°F
Humidity 80%
Altimeter 29.65" Hg
Pressure 1005.9 hPa
Elevation 523
METAR CYYD 140000Z 17008KT 130V210 25SM BKN055 OVC090 00/M03 A2965 RMK SC6AC2 SLP059
Observed Flight Rules
Dec-14 @ 00:00 UTC
(44 minutes ago)
VFR
Wind Visibility
170° at 8 knots 25 miles
Clouds
  • Broken at 5,500' AGL
  • Overcast at 9,000' AGL
Temperature Dewpoint
0°C / 32°F -3°C / 27°F
Humidity Altimeter Pressure
80% 29.65" Hg 1005.9 hPa